Terminal Aerodrome Forecast
Issued by NWS

Home | Current Version | Previous Version | Text Only | Print | Product List | Glossary On
Versions: 1 2 3 4 5 6 7 8 9 10 11 12 13 14 15 16 17 18 19 20 21 22 23 24 25 26 27 28
000
FTUS45 KTWC 271139
TAFOLS
TAF
KOLS 271139Z 2712/2812 01008KT P6SM -TSRA SCT050CB BKN070 OVC090
     FM271600 10008KT P6SM VCTS BKN060CB BKN110
     FM280100 13008KT P6SM VCSH SCT070 BKN130
     FM280300 11005KT P6SM SCT070 BKN130=

USA.gov is the U.S. government's official web portal to all federal, state and local government web resources and services.